ENHM

Heimdal Oilp

Heimdal Oilp, Norway
METAR ENHM 222120Z AUTO 17025KT 7000NDV FEW018/// SCT052/// 07/07 Q1000 W07/S5
Observed Flight Rules
Apr-22 @ 21:20 UTC (23 minutes ago)
Wind Clouds
170° at 25 knots
  • Few at 1,800' AGL
  • Scattered at 5,200' AGL
Temperatures Readings
Current 7°C / 45°F
Dewpoint 7°C / 45°F
Humidity 100%
Altimeter 29.53" Hg
Pressure 1000 hPa
Elevation 10
METAR ENHM 222120Z AUTO 17025KT 7000NDV FEW018/// SCT052/// 07/07 Q1000 W07/S5
Observed Flight Rules
Apr-22 @ 21:20 UTC
(23 minutes ago)
Wind
170° at 25 knots
Clouds
  • Few at 1,800' AGL
  • Scattered at 5,200' AGL
Temperature Dewpoint
7°C / 45°F 7°C / 45°F
Humidity Altimeter Pressure
100% 29.53" Hg 1000 hPa